WetterOnline ( http://www.wetteronline.de )

Wetter aktuell Schmölln

Aktuelles Wetter: Leipzig-Holzhausen (138m)

6-stündlich | Neueste Meldungen
Ortszeit Temperatur Wetter
Fr, 27.04. 2:00 7.7° C bewölkt
Do, 26.04. 20:00 10.4° C leicht bewölkt
Do, 26.04. 14:00 10.3° C bedeckt
Do, 26.04. 8:00 10.0° C wolkenlos
Do, 26.04. 2:00 8.2° C leicht bewölkt
Mi, 25.04. 20:00 12.3° C bewölkt
Mi, 25.04. 14:00 18.2° C bewölkt
Mi, 25.04. 8:00 14.4° C bedeckt
Ortszeit Temperatur Wetter
Fr, 27.04. 4:30 6.9° C bedeckt
Fr, 27.04. 4:20 6.9° C bedeckt
Fr, 27.04. 4:10 7.0° C bedeckt
Fr, 27.04. 4:00 6.7° C bewölkt
Fr, 27.04. 3:50 6.7° C bewölkt
Fr, 27.04. 3:40 6.7° C bewölkt
Fr, 27.04. 3:30 6.3° C wolkig
Fr, 27.04. 3:00 6.2° C wolkig
Fr, 27.04. 2:30 7.1° C wolkig
Fr, 27.04. 2:00 7.7° C bewölkt
Fr, 27.04. 1:30 8.0° C bewölkt
Ortszeit Relative Feuchte Sichtweite
Fr, 27.04. 2:00 88% 24 km
Do, 26.04. 20:00 70% 45 km
Do, 26.04. 14:00 79% 30 km
Do, 26.04. 8:00 79% 16 km
Do, 26.04. 2:00 99% 6 km
Mi, 25.04. 20:00 91% 16 km
Mi, 25.04. 14:00 55% 40 km
Mi, 25.04. 8:00 70% 35 km
Ortszeit Relative Feuchte Sichtweite
Fr, 27.04. 4:30 91% 21 km
Fr, 27.04. 4:20 91% -
Fr, 27.04. 4:10 90% -
Fr, 27.04. 4:00 90% 21 km
Fr, 27.04. 3:50 90% -
Fr, 27.04. 3:40 90% -
Fr, 27.04. 3:30 91% 17 km
Fr, 27.04. 3:00 93% 19 km
Fr, 27.04. 2:30 89% 22 km
Fr, 27.04. 2:00 88% 24 km
Fr, 27.04. 1:30 85% 29 km
Ortszeit Niederschlagsmenge Niederschlagsart
Fr, 27.04. 2:00 0.2 l/m2 in 6 Std. Regen
Do, 26.04. 20:00 1 l/m2 in 12 Std. Regen
Do, 26.04. 14:00 0.6 l/m2 in 6 Std. Regen
Do, 26.04. 8:00 0.1 l/m2 in 12 Std. Regen
Do, 26.04. 2:00 0.0 l/m2 in 6 Std. -
Mi, 25.04. 20:00 4 l/m2 in 12 Std. Regen
Mi, 25.04. 14:00 0.0 l/m2 in 6 Std. -
Mi, 25.04. 8:00 0.0 l/m2 in 12 Std. -
Ortszeit Niederschlagsmenge Niederschlagsart
Fr, 27.04. 4:30 0.0 l/m2 in 1 Std. -
Fr, 27.04. 4:20 keine Meldung -
Fr, 27.04. 4:10 keine Meldung -
Fr, 27.04. 4:00 0.0 l/m2 in 1 Std. -
Fr, 27.04. 3:50 keine Meldung -
Fr, 27.04. 3:40 keine Meldung -
Fr, 27.04. 3:30 0.0 l/m2 in 1 Std. -
Fr, 27.04. 3:00 0.0 l/m2 in 1 Std. -
Fr, 27.04. 2:30 0.0 l/m2 in 1 Std. -
Fr, 27.04. 2:00 0.0 l/m2 in 1 Std. Regen
Fr, 27.04. 1:30 0.0 l/m2 in 1 Std. -
Ortszeit Stärke Spitze Richtung
km/h Bft. km/h Grad Sektor
Fr, 27.04. 2:00 7 2 18 200° S
Do, 26.04. 20:00 7 2 44 260° W
Do, 26.04. 14:00 9 2 52 290° W
Do, 26.04. 8:00 14 3 29 250° W
Do, 26.04. 2:00 0 0 11 - -
Mi, 25.04. 20:00 4 1 50 250° W
Mi, 25.04. 14:00 20 4 52 250° W
Mi, 25.04. 8:00 15 3 26 220° SW
Ortszeit Stärke Spitze Richtung
km/h Bft. km/h Grad Sektor
Fr, 27.04. 4:30 4 1 7 190° S
Fr, 27.04. 4:20 4 1 - 190° S
Fr, 27.04. 4:10 4 1 - 180° S
Fr, 27.04. 4:00 6 1 9 180° S
Fr, 27.04. 3:50 6 1 - 180° S
Fr, 27.04. 3:40 4 1 - 170° S
Fr, 27.04. 3:30 4 1 7 170° S
Fr, 27.04. 3:00 4 1 11 200° S
Fr, 27.04. 2:30 4 1 11 200° S
Fr, 27.04. 2:00 7 2 11 200° S
Fr, 27.04. 1:30 7 2 11 230° SW
Ortszeit Untergrenze Bedeckung Gattung
total tief tief mittel hoch
Fr, 27.04. 2:00 1800 m 8/8 5/8 - - -
Do, 26.04. 20:00 2700 m 3/8 3/8 - - -
Do, 26.04. 14:00 1110 m 8/8 8/8 - - -
Do, 26.04. 8:00 - 0/8 0/8 - - -
Do, 26.04. 2:00 3600 m 3/8 1/8 - - -
Mi, 25.04. 20:00 1080 m 7/8 7/8 - - -
Mi, 25.04. 14:00 1800 m 7/8 7/8 - - -
Mi, 25.04. 8:00 3900 m 8/8 8/8 - - -
Ortszeit Bedeckungsgrad in Achtel und Wolkenuntergrenze
Fr, 27.04. 4:30 4(1800m) 8(2400m)
Fr, 27.04. 4:20 4(1800m) 8(2400m)
Fr, 27.04. 4:10 6(2100m) 8(2400m)
Fr, 27.04. 4:00 5(1800m) 7(2400m) 8(7800m)
Fr, 27.04. 3:50 5(1800m) 7(2400m) 8(7800m)
Fr, 27.04. 3:40 4(1800m) 7(2400m) 8(7800m)
Fr, 27.04. 3:30 2(2400m) 8(7800m)
Fr, 27.04. 3:00 8(7800m)
Fr, 27.04. 2:30 2(1800m) 7(7800m) 8(9000m)
Fr, 27.04. 2:00 5(1800m) 8(8100m) 8(9000m)
Fr, 27.04. 1:30 5(2100m) 8(3000m)
Ortszeit Luftdruck NN (hPa) Tendenz (hPa in 3 Std.)
Fr, 27.04. 2:00 1018 + 0,1
Do, 26.04. 20:00 1017 + 1,2
Do, 26.04. 14:00 1016 + 0,9
Do, 26.04. 8:00 1013 + 0,8
Do, 26.04. 2:00 1013 + 0,6
Mi, 25.04. 20:00 1011 + 1,5
Mi, 25.04. 14:00 1008 + 0,1
Mi, 25.04. 8:00 1008 - 0,8
Ortszeit Luftdruck NN (hPa) Tendenz (hPa in 3 Std.)
Fr, 27.04. 4:30 1018 - 0,6
Fr, 27.04. 4:20 1018 keine Meldung
Fr, 27.04. 4:10 1018 keine Meldung
Fr, 27.04. 4:00 1018 - 0,4
Fr, 27.04. 3:50 1018 keine Meldung
Fr, 27.04. 3:40 1018 keine Meldung
Fr, 27.04. 3:30 1018 - 0,6
Fr, 27.04. 3:00 1018 - 0,1
Fr, 27.04. 2:30 1018 - 0,5
Fr, 27.04. 2:00 1018 + 0,1
Fr, 27.04. 1:30 1018 + 0,2
Ortszeit Schneehöhe (cm)
Fr, 27.04. 2:00 0
Do, 26.04. 20:00 0
Do, 26.04. 14:00 0
Do, 26.04. 8:00 0
Do, 26.04. 2:00 0
Mi, 25.04. 20:00 0
Mi, 25.04. 14:00 0
Mi, 25.04. 8:00 0
Ortszeit Schneehöhe (cm)
Fr, 27.04. 4:30 0
Fr, 27.04. 4:20 0
Fr, 27.04. 4:10 0
Fr, 27.04. 4:00 0
Fr, 27.04. 3:50 0
Fr, 27.04. 3:40 0
Fr, 27.04. 3:30 0
Fr, 27.04. 3:00 0
Fr, 27.04. 2:30 0
Fr, 27.04. 2:00 0
Fr, 27.04. 1:30 0
Link zu dieser Seite / Seite empfehlen

Das Wetter in ...